sensor_id;sensor_type;location;lat;lon;timestamp;P1;durP1;ratioP1;P2;durP2;ratioP2
2456;SDS011;1240;48.018;7.816;2022-08-01T00:01:31;2.95;;;2.25;;
2456;SDS011;1240;48.018;7.816;2022-08-01T00:03:56;2.30;;;2.20;;
2456;SDS011;1240;48.018;7.816;2022-08-01T00:06:21;2.90;;;2.58;;
2456;SDS011;1240;48.018;7.816;2022-08-01T00:08:46;2.50;;;2.30;;
2456;SDS011;1240;48.018;7.816;2022-08-01T00:11:11;2.72;;;2.00;;
2456;SDS011;1240;48.018;7.816;2022-08-01T00:13:37;5.75;;;1.92;;
2456;SDS011;1240;48.018;7.816;2022-08-01T00:16:02;3.27;;;1.80;;
2456;SDS011;1240;48.018;7.816;2022-08-01T00:18:27;1.90;;;1.80;;
2456;SDS011;1240;48.018;7.816;2022-08-01T00:20:52;2.15;;;2.00;;
2456;SDS011;1240;48.018;7.816;2022-08-01T00:23:17;3.73;;;2.03;;
2456;SDS011;1240;48.018;7.816;2022-08-01T00:25:42;4.00;;;2.20;;
2456;SDS011;1240;48.018;7.816;2022-08-01T00:28:08;10.88;;;2.40;;
2456;SDS011;1240;48.018;7.816;2022-08-01T00:30:33;2.47;;;2.30;;
2456;SDS011;1240;48.018;7.816;2022-08-01T00:32:58;4.10;;;2.15;;
2456;SDS011;1240;48.018;7.816;2022-08-01T00:35:23;3.30;;;2.50;;
2456;SDS011;1240;48.018;7.816;2022-08-01T00:37:48;5.33;;;2.10;;
2456;SDS011;1240;48.018;7.816;2022-08-01T00:40:13;2.23;;;2.03;;
2456;SDS011;1240;48.018;7.816;2022-08-01T00:42:38;2.40;;;2.13;;
2456;SDS011;1240;48.018;7.816;2022-08-01T00:45:04;2.53;;;2.07;;
2456;SDS011;1240;48.018;7.816;2022-08-01T00:47:29;2.30;;;2.10;;
2456;SDS011;1240;48.018;7.816;2022-08-01T00:49:54;2.33;;;2.13;;
2456;SDS011;1240;48.018;7.816;2022-08-01T00:52:19;2.10;;;2.00;;
2456;SDS011;1240;48.018;7.816;2022-08-01T00:54:44;3.20;;;1.67;;
2456;SDS011;1240;48.018;7.816;2022-08-01T00:57:10;2.03;;;1.93;;
2456;SDS011;1240;48.018;7.816;2022-08-01T00:59:35;3.60;;;2.30;;
2456;SDS011;1240;48.018;7.816;2022-08-01T01:02:01;1.90;;;1.73;;
2456;SDS011;1240;48.018;7.816;2022-08-01T01:04:26;2.40;;;2.00;;
2456;SDS011;1240;48.018;7.816;2022-08-01T01:14:33;2.63;;;2.23;;
2456;SDS011;1240;48.018;7.816;2022-08-01T01:17:01;2.03;;;1.80;;
2456;SDS011;1240;48.018;7.816;2022-08-01T01:19:28;2.93;;;1.93;;
2456;SDS011;1240;48.018;7.816;2022-08-01T01:29:26;2.20;;;2.10;;
2456;SDS011;1240;48.018;7.816;2022-08-01T01:31:57;1.67;;;1.57;;
2456;SDS011;1240;48.018;7.816;2022-08-01T01:34:23;2.60;;;1.83;;
2456;SDS011;1240;48.018;7.816;2022-08-01T01:36:50;6.10;;;2.03;;
2456;SDS011;1240;48.018;7.816;2022-08-01T01:39:17;1.60;;;1.43;;
2456;SDS011;1240;48.018;7.816;2022-08-01T01:41:42;3.73;;;2.17;;
2456;SDS011;1240;48.018;7.816;2022-08-01T01:44:08;1.90;;;1.80;;
2456;SDS011;1240;48.018;7.816;2022-08-01T01:46:34;1.87;;;1.77;;
2456;SDS011;1240;48.018;7.816;2022-08-01T01:49:00;3.23;;;1.93;;
2456;SDS011;1240;48.018;7.816;2022-08-01T01:51:26;2.30;;;2.10;;
2456;SDS011;1240;48.018;7.816;2022-08-01T01:53:52;4.80;;;1.70;;
2456;SDS011;1240;48.018;7.816;2022-08-01T01:56:18;4.77;;;2.30;;
2456;SDS011;1240;48.018;7.816;2022-08-01T01:58:43;2.23;;;1.70;;
2456;SDS011;1240;48.018;7.816;2022-08-01T02:01:10;2.37;;;2.17;;
2456;SDS011;1240;48.018;7.816;2022-08-01T02:03:35;3.67;;;2.70;;
2456;SDS011;1240;48.018;7.816;2022-08-01T02:06:01;2.33;;;2.20;;
2456;SDS011;1240;48.018;7.816;2022-08-01T02:08:27;2.30;;;2.10;;
2456;SDS011;1240;48.018;7.816;2022-08-01T02:10:53;2.23;;;1.90;;
2456;SDS011;1240;48.018;7.816;2022-08-01T02:13:20;2.13;;;1.70;;
2456;SDS011;1240;48.018;7.816;2022-08-01T02:15:45;2.10;;;2.00;;
2456;SDS011;1240;48.018;7.816;2022-08-01T02:18:10;1.73;;;1.63;;
2456;SDS011;1240;48.018;7.816;2022-08-01T02:20:36;1.83;;;1.73;;
2456;SDS011;1240;48.018;7.816;2022-08-01T02:23:06;2.33;;;2.23;;
2456;SDS011;1240;48.018;7.816;2022-08-01T02:25:32;2.13;;;1.90;;
2456;SDS011;1240;48.018;7.816;2022-08-01T02:28:06;2.47;;;2.27;;
2456;SDS011;1240;48.018;7.816;2022-08-01T02:30:35;2.10;;;1.90;;
2456;SDS011;1240;48.018;7.816;2022-08-01T02:33:44;1.90;;;1.80;;
2456;SDS011;1240;48.018;7.816;2022-08-01T02:35:50;4.00;;;2.10;;
2456;SDS011;1240;48.018;7.816;2022-08-01T02:38:16;1.93;;;1.83;;
2456;SDS011;1240;48.018;7.816;2022-08-01T02:40:44;2.33;;;1.90;;
2456;SDS011;1240;48.018;7.816;2022-08-01T02:43:10;2.00;;;1.90;;
2456;SDS011;1240;48.018;7.816;2022-08-01T02:45:37;1.90;;;1.80;;
2456;SDS011;1240;48.018;7.816;2022-08-01T02:48:06;4.63;;;2.40;;
2456;SDS011;1240;48.018;7.816;2022-08-01T02:50:32;2.87;;;1.80;;
2456;SDS011;1240;48.018;7.816;2022-08-01T02:52:58;2.40;;;2.20;;
2456;SDS011;1240;48.018;7.816;2022-08-01T02:55:24;2.53;;;2.33;;
2456;SDS011;1240;48.018;7.816;2022-08-01T02:57:50;2.20;;;1.97;;
2456;SDS011;1240;48.018;7.816;2022-08-01T03:00:16;2.60;;;2.40;;
2456;SDS011;1240;48.018;7.816;2022-08-01T03:02:42;2.53;;;2.33;;
2456;SDS011;1240;48.018;7.816;2022-08-01T03:05:08;2.20;;;2.10;;
2456;SDS011;1240;48.018;7.816;2022-08-01T03:07:34;4.87;;;2.30;;
2456;SDS011;1240;48.018;7.816;2022-08-01T03:10:00;1.90;;;1.80;;
2456;SDS011;1240;48.018;7.816;2022-08-01T03:12:27;2.60;;;2.40;;
2456;SDS011;1240;48.018;7.816;2022-08-01T03:14:54;3.97;;;2.73;;
2456;SDS011;1240;48.018;7.816;2022-08-01T03:17:21;2.50;;;2.30;;
2456;SDS011;1240;48.018;7.816;2022-08-01T03:19:47;2.73;;;2.53;;
2456;SDS011;1240;48.018;7.816;2022-08-01T03:22:13;2.87;;;2.60;;
2456;SDS011;1240;48.018;7.816;2022-08-01T03:24:39;2.90;;;2.70;;
2456;SDS011;1240;48.018;7.816;2022-08-01T03:27:05;3.90;;;2.43;;
2456;SDS011;1240;48.018;7.816;2022-08-01T03:29:31;1.97;;;1.87;;
2456;SDS011;1240;48.018;7.816;2022-08-01T03:31:56;3.23;;;2.63;;
2456;SDS011;1240;48.018;7.816;2022-08-01T03:34:22;2.93;;;2.63;;
2456;SDS011;1240;48.018;7.816;2022-08-01T03:36:49;2.77;;;2.57;;
2456;SDS011;1240;48.018;7.816;2022-08-01T03:39:14;7.50;;;2.90;;
2456;SDS011;1240;48.018;7.816;2022-08-01T03:41:41;5.10;;;3.00;;
2456;SDS011;1240;48.018;7.816;2022-08-01T03:44:10;2.73;;;2.20;;
2456;SDS011;1240;48.018;7.816;2022-08-01T03:46:43;4.90;;;3.17;;
2456;SDS011;1240;48.018;7.816;2022-08-01T03:49:29;4.10;;;2.43;;
2456;SDS011;1240;48.018;7.816;2022-08-01T03:51:54;3.10;;;2.90;;
2456;SDS011;1240;48.018;7.816;2022-08-01T03:54:21;3.40;;;3.10;;
2456;SDS011;1240;48.018;7.816;2022-08-01T03:56:48;3.30;;;2.80;;
2456;SDS011;1240;48.018;7.816;2022-08-01T03:59:14;2.67;;;2.47;;
2456;SDS011;1240;48.018;7.816;2022-08-01T04:01:40;3.97;;;3.67;;
2456;SDS011;1240;48.018;7.816;2022-08-01T04:04:05;3.53;;;2.77;;
2456;SDS011;1240;48.018;7.816;2022-08-01T04:06:31;2.50;;;2.17;;
2456;SDS011;1240;48.018;7.816;2022-08-01T04:08:56;3.30;;;2.70;;
2456;SDS011;1240;48.018;7.816;2022-08-01T04:11:25;2.87;;;2.73;;
2456;SDS011;1240;48.018;7.816;2022-08-01T04:13:51;3.07;;;2.83;;
2456;SDS011;1240;48.018;7.816;2022-08-01T04:16:17;3.00;;;2.60;;
2456;SDS011;1240;48.018;7.816;2022-08-01T04:18:42;4.32;;;2.38;;
2456;SDS011;1240;48.018;7.816;2022-08-01T04:21:07;4.00;;;2.50;;
2456;SDS011;1240;48.018;7.816;2022-08-01T04:23:32;3.30;;;2.37;;
2456;SDS011;1240;48.018;7.816;2022-08-01T04:25:59;5.90;;;2.97;;
2456;SDS011;1240;48.018;7.816;2022-08-01T04:28:25;2.57;;;2.40;;
2456;SDS011;1240;48.018;7.816;2022-08-01T04:30:52;4.13;;;3.10;;
2456;SDS011;1240;48.018;7.816;2022-08-01T04:33:19;2.70;;;2.50;;
2456;SDS011;1240;48.018;7.816;2022-08-01T04:35:45;2.73;;;2.53;;
2456;SDS011;1240;48.018;7.816;2022-08-01T04:38:12;2.83;;;2.63;;
2456;SDS011;1240;48.018;7.816;2022-08-01T04:40:39;3.20;;;3.00;;
2456;SDS011;1240;48.018;7.816;2022-08-01T04:43:05;3.60;;;2.57;;
2456;SDS011;1240;48.018;7.816;2022-08-01T04:45:30;2.70;;;2.50;;
2456;SDS011;1240;48.018;7.816;2022-08-01T04:47:55;4.33;;;2.77;;
2456;SDS011;1240;48.018;7.816;2022-08-01T04:50:21;3.50;;;2.60;;
2456;SDS011;1240;48.018;7.816;2022-08-01T04:52:47;3.07;;;2.60;;
2456;SDS011;1240;48.018;7.816;2022-08-01T04:55:12;2.90;;;2.70;;
2456;SDS011;1240;48.018;7.816;2022-08-01T04:57:39;3.03;;;2.83;;
2456;SDS011;1240;48.018;7.816;2022-08-01T05:00:06;3.80;;;3.50;;
2456;SDS011;1240;48.018;7.816;2022-08-01T05:02:31;3.30;;;2.67;;
2456;SDS011;1240;48.018;7.816;2022-08-01T05:04:56;3.50;;;2.72;;
2456;SDS011;1240;48.018;7.816;2022-08-01T05:07:21;2.80;;;2.60;;
2456;SDS011;1240;48.018;7.816;2022-08-01T05:09:46;2.70;;;2.50;;
2456;SDS011;1240;48.018;7.816;2022-08-01T05:12:11;5.20;;;2.50;;
2456;SDS011;1240;48.018;7.816;2022-08-01T05:14:37;2.90;;;2.70;;
2456;SDS011;1240;48.018;7.816;2022-08-01T05:17:03;2.97;;;2.70;;
2456;SDS011;1240;48.018;7.816;2022-08-01T05:19:32;4.20;;;3.17;;
2456;SDS011;1240;48.018;7.816;2022-08-01T05:21:58;3.63;;;3.30;;
2456;SDS011;1240;48.018;7.816;2022-08-01T05:24:23;4.93;;;3.53;;
2456;SDS011;1240;48.018;7.816;2022-08-01T05:26:48;5.03;;;3.50;;
2456;SDS011;1240;48.018;7.816;2022-08-01T05:29:13;5.87;;;4.10;;
2456;SDS011;1240;48.018;7.816;2022-08-01T05:31:38;5.05;;;3.40;;
2456;SDS011;1240;48.018;7.816;2022-08-01T05:34:03;4.77;;;3.80;;
2456;SDS011;1240;48.018;7.816;2022-08-01T05:36:29;3.70;;;3.50;;
2456;SDS011;1240;48.018;7.816;2022-08-01T05:38:54;4.13;;;3.13;;
2456;SDS011;1240;48.018;7.816;2022-08-01T05:41:19;10.80;;;3.10;;
2456;SDS011;1240;48.018;7.816;2022-08-01T05:43:44;5.90;;;3.43;;
2456;SDS011;1240;48.018;7.816;2022-08-01T05:46:09;4.10;;;3.77;;
2456;SDS011;1240;48.018;7.816;2022-08-01T05:48:34;6.13;;;3.63;;
2456;SDS011;1240;48.018;7.816;2022-08-01T05:50:59;3.20;;;2.90;;
2456;SDS011;1240;48.018;7.816;2022-08-01T05:53:25;3.88;;;2.88;;
2456;SDS011;1240;48.018;7.816;2022-08-01T05:55:50;3.40;;;3.10;;
2456;SDS011;1240;48.018;7.816;2022-08-01T05:58:15;3.85;;;3.00;;
2456;SDS011;1240;48.018;7.816;2022-08-01T06:00:41;3.97;;;3.67;;
2456;SDS011;1240;48.018;7.816;2022-08-01T06:03:06;4.90;;;3.53;;
2456;SDS011;1240;48.018;7.816;2022-08-01T06:05:31;4.28;;;3.97;;
2456;SDS011;1240;48.018;7.816;2022-08-01T06:07:56;5.17;;;3.93;;
2456;SDS011;1240;48.018;7.816;2022-08-01T06:10:21;5.88;;;3.35;;
2456;SDS011;1240;48.018;7.816;2022-08-01T06:12:46;3.73;;;3.20;;
2456;SDS011;1240;48.018;7.816;2022-08-01T06:15:11;5.07;;;3.25;;
2456;SDS011;1240;48.018;7.816;2022-08-01T06:17:37;3.87;;;3.57;;
2456;SDS011;1240;48.018;7.816;2022-08-01T06:20:02;6.37;;;4.50;;
2456;SDS011;1240;48.018;7.816;2022-08-01T06:22:28;10.13;;;3.50;;
2456;SDS011;1240;48.018;7.816;2022-08-01T06:24:53;5.03;;;4.30;;
2456;SDS011;1240;48.018;7.816;2022-08-01T06:27:18;3.73;;;3.00;;
2456;SDS011;1240;48.018;7.816;2022-08-01T06:29:44;3.37;;;3.10;;
2456;SDS011;1240;48.018;7.816;2022-08-01T06:32:09;3.87;;;3.47;;
2456;SDS011;1240;48.018;7.816;2022-08-01T06:34:34;5.40;;;3.40;;
2456;SDS011;1240;48.018;7.816;2022-08-01T06:36:59;6.60;;;3.30;;
2456;SDS011;1240;48.018;7.816;2022-08-01T06:39:25;7.72;;;3.40;;
2456;SDS011;1240;48.018;7.816;2022-08-01T06:41:50;3.40;;;3.10;;
2456;SDS011;1240;48.018;7.816;2022-08-01T06:44:15;3.80;;;2.83;;
2456;SDS011;1240;48.018;7.816;2022-08-01T06:46:40;5.07;;;4.10;;
2456;SDS011;1240;48.018;7.816;2022-08-01T06:49:05;2.90;;;2.70;;
2456;SDS011;1240;48.018;7.816;2022-08-01T06:51:30;3.70;;;3.33;;
2456;SDS011;1240;48.018;7.816;2022-08-01T06:53:55;3.90;;;3.60;;
2456;SDS011;1240;48.018;7.816;2022-08-01T06:56:21;3.83;;;3.50;;
2456;SDS011;1240;48.018;7.816;2022-08-01T06:58:46;3.63;;;3.33;;
2456;SDS011;1240;48.018;7.816;2022-08-01T07:01:11;4.00;;;3.23;;
2456;SDS011;1240;48.018;7.816;2022-08-01T07:03:36;3.83;;;3.43;;
2456;SDS011;1240;48.018;7.816;2022-08-01T07:06:01;3.77;;;3.47;;
2456;SDS011;1240;48.018;7.816;2022-08-01T07:08:27;4.73;;;3.20;;
2456;SDS011;1240;48.018;7.816;2022-08-01T07:10:52;4.07;;;3.77;;
2456;SDS011;1240;48.018;7.816;2022-08-01T07:13:17;3.53;;;3.23;;
2456;SDS011;1240;48.018;7.816;2022-08-01T07:15:42;3.85;;;3.58;;
2456;SDS011;1240;48.018;7.816;2022-08-01T07:18:07;3.50;;;3.20;;
2456;SDS011;1240;48.018;7.816;2022-08-01T07:20:32;5.10;;;3.53;;
2456;SDS011;1240;48.018;7.816;2022-08-01T07:22:57;3.47;;;3.27;;
2456;SDS011;1240;48.018;7.816;2022-08-01T07:25:23;3.30;;;3.00;;
2456;SDS011;1240;48.018;7.816;2022-08-01T07:27:48;4.27;;;3.73;;
2456;SDS011;1240;48.018;7.816;2022-08-01T07:30:14;4.40;;;4.00;;
2456;SDS011;1240;48.018;7.816;2022-08-01T07:32:39;3.40;;;3.10;;
2456;SDS011;1240;48.018;7.816;2022-08-01T07:35:04;3.20;;;3.00;;
2456;SDS011;1240;48.018;7.816;2022-08-01T07:37:29;3.43;;;3.13;;
2456;SDS011;1240;48.018;7.816;2022-08-01T07:39:54;3.08;;;2.88;;
2456;SDS011;1240;48.018;7.816;2022-08-01T07:42:20;5.65;;;2.60;;
2456;SDS011;1240;48.018;7.816;2022-08-01T07:44:45;3.25;;;2.92;;
2456;SDS011;1240;48.018;7.816;2022-08-01T07:47:10;4.27;;;2.70;;
2456;SDS011;1240;48.018;7.816;2022-08-01T07:49:35;4.00;;;2.50;;
2456;SDS011;1240;48.018;7.816;2022-08-01T07:52:00;3.00;;;2.80;;
2456;SDS011;1240;48.018;7.816;2022-08-01T07:54:25;3.45;;;3.13;;
2456;SDS011;1240;48.018;7.816;2022-08-01T07:56:51;2.83;;;2.63;;
2456;SDS011;1240;48.018;7.816;2022-08-01T07:59:16;10.10;;;3.10;;
2456;SDS011;1240;48.018;7.816;2022-08-01T08:01:41;3.47;;;3.17;;
2456;SDS011;1240;48.018;7.816;2022-08-01T08:04:06;3.25;;;3.05;;
2456;SDS011;1240;48.018;7.816;2022-08-01T08:06:31;3.27;;;3.03;;
2456;SDS011;1240;48.018;7.816;2022-08-01T08:08:56;5.65;;;3.28;;
2456;SDS011;1240;48.018;7.816;2022-08-01T08:11:21;3.40;;;3.20;;
2456;SDS011;1240;48.018;7.816;2022-08-01T08:13:47;4.00;;;3.67;;
2456;SDS011;1240;48.018;7.816;2022-08-01T08:16:12;3.37;;;2.63;;
2456;SDS011;1240;48.018;7.816;2022-08-01T08:18:37;2.92;;;2.72;;
2456;SDS011;1240;48.018;7.816;2022-08-01T08:21:02;3.13;;;2.92;;
2456;SDS011;1240;48.018;7.816;2022-08-01T08:23:27;3.22;;;2.92;;
2456;SDS011;1240;48.018;7.816;2022-08-01T08:25:52;3.92;;;3.17;;
2456;SDS011;1240;48.018;7.816;2022-08-01T08:28:17;4.10;;;3.50;;
2456;SDS011;1240;48.018;7.816;2022-08-01T08:30:43;3.00;;;2.80;;
2456;SDS011;1240;48.018;7.816;2022-08-01T08:33:08;8.02;;;3.25;;
2456;SDS011;1240;48.018;7.816;2022-08-01T08:35:33;3.30;;;3.10;;
2456;SDS011;1240;48.018;7.816;2022-08-01T08:37:58;3.87;;;3.57;;
2456;SDS011;1240;48.018;7.816;2022-08-01T08:40:23;3.13;;;2.92;;
2456;SDS011;1240;48.018;7.816;2022-08-01T08:42:54;3.10;;;2.53;;
2456;SDS011;1240;48.018;7.816;2022-08-01T08:45:19;4.40;;;3.60;;
2456;SDS011;1240;48.018;7.816;2022-08-01T08:47:44;3.53;;;3.30;;
2456;SDS011;1240;48.018;7.816;2022-08-01T08:50:10;3.80;;;3.30;;
2456;SDS011;1240;48.018;7.816;2022-08-01T08:52:35;3.23;;;2.87;;
2456;SDS011;1240;48.018;7.816;2022-08-01T08:55:02;3.67;;;3.37;;
2456;SDS011;1240;48.018;7.816;2022-08-01T08:57:28;3.53;;;3.33;;
2456;SDS011;1240;48.018;7.816;2022-08-01T08:59:53;3.03;;;2.83;;
2456;SDS011;1240;48.018;7.816;2022-08-01T09:02:18;2.60;;;2.50;;
2456;SDS011;1240;48.018;7.816;2022-08-01T09:04:43;3.33;;;3.05;;
2456;SDS011;1240;48.018;7.816;2022-08-01T09:07:09;4.30;;;2.80;;
2456;SDS011;1240;48.018;7.816;2022-08-01T09:09:34;4.13;;;3.72;;
2456;SDS011;1240;48.018;7.816;2022-08-01T09:11:59;4.63;;;4.00;;
2456;SDS011;1240;48.018;7.816;2022-08-01T09:14:25;5.70;;;3.50;;
2456;SDS011;1240;48.018;7.816;2022-08-01T09:17:01;5.40;;;3.20;;
2456;SDS011;1240;48.018;7.816;2022-08-01T09:19:34;3.70;;;3.40;;
2456;SDS011;1240;48.018;7.816;2022-08-01T09:22:00;3.37;;;3.17;;
2456;SDS011;1240;48.018;7.816;2022-08-01T09:24:26;3.67;;;3.43;;
2456;SDS011;1240;48.018;7.816;2022-08-01T09:26:52;4.60;;;3.10;;
2456;SDS011;1240;48.018;7.816;2022-08-01T09:29:19;3.30;;;3.00;;
2456;SDS011;1240;48.018;7.816;2022-08-01T09:31:44;4.60;;;3.40;;
2456;SDS011;1240;48.018;7.816;2022-08-01T09:34:10;6.43;;;3.73;;
2456;SDS011;1240;48.018;7.816;2022-08-01T09:36:46;3.53;;;3.33;;
2456;SDS011;1240;48.018;7.816;2022-08-01T09:39:12;2.83;;;2.63;;
2456;SDS011;1240;48.018;7.816;2022-08-01T09:41:37;3.30;;;3.10;;
2456;SDS011;1240;48.018;7.816;2022-08-01T09:44:02;3.10;;;2.87;;
2456;SDS011;1240;48.018;7.816;2022-08-01T09:46:28;3.23;;;2.83;;
2456;SDS011;1240;48.018;7.816;2022-08-01T09:49:00;2.70;;;2.60;;
2456;SDS011;1240;48.018;7.816;2022-08-01T09:53:56;3.10;;;2.60;;
2456;SDS011;1240;48.018;7.816;2022-08-01T09:56:22;3.47;;;2.67;;
2456;SDS011;1240;48.018;7.816;2022-08-01T09:58:51;4.00;;;3.23;;
2456;SDS011;1240;48.018;7.816;2022-08-01T10:01:16;3.23;;;3.00;;
2456;SDS011;1240;48.018;7.816;2022-08-01T10:03:41;3.00;;;2.80;;
2456;SDS011;1240;48.018;7.816;2022-08-01T10:06:19;4.43;;;2.50;;
2456;SDS011;1240;48.018;7.816;2022-08-01T10:08:45;3.17;;;2.87;;
2456;SDS011;1240;48.018;7.816;2022-08-01T10:11:11;2.10;;;1.77;;
2456;SDS011;1240;48.018;7.816;2022-08-01T10:13:36;3.93;;;2.30;;
2456;SDS011;1240;48.018;7.816;2022-08-01T10:16:02;2.00;;;1.73;;
2456;SDS011;1240;48.018;7.816;2022-08-01T10:18:28;3.40;;;3.00;;
2456;SDS011;1240;48.018;7.816;2022-08-01T10:20:55;2.17;;;1.97;;
2456;SDS011;1240;48.018;7.816;2022-08-01T10:23:20;2.20;;;2.10;;
2456;SDS011;1240;48.018;7.816;2022-08-01T10:25:46;2.13;;;1.90;;
2456;SDS011;1240;48.018;7.816;2022-08-01T10:28:16;2.10;;;2.00;;
2456;SDS011;1240;48.018;7.816;2022-08-01T10:30:42;3.20;;;2.90;;
2456;SDS011;1240;48.018;7.816;2022-08-01T10:33:08;2.20;;;2.10;;
2456;SDS011;1240;48.018;7.816;2022-08-01T10:35:33;4.30;;;2.10;;
2456;SDS011;1240;48.018;7.816;2022-08-01T10:37:59;2.60;;;2.40;;
2456;SDS011;1240;48.018;7.816;2022-08-01T10:40:24;2.17;;;2.07;;
2456;SDS011;1240;48.018;7.816;2022-08-01T10:42:49;1.70;;;1.60;;
2456;SDS011;1240;48.018;7.816;2022-08-01T10:45:15;1.60;;;1.50;;
2456;SDS011;1240;48.018;7.816;2022-08-01T10:58:19;2.38;;;1.67;;
2456;SDS011;1240;48.018;7.816;2022-08-01T11:00:44;2.20;;;2.00;;
2456;SDS011;1240;48.018;7.816;2022-08-01T11:03:09;1.97;;;1.87;;
2456;SDS011;1240;48.018;7.816;2022-08-01T11:05:35;3.00;;;2.20;;
2456;SDS011;1240;48.018;7.816;2022-08-01T11:08:05;3.30;;;2.03;;
2456;SDS011;1240;48.018;7.816;2022-08-01T11:10:39;2.27;;;2.10;;
2456;SDS011;1240;48.018;7.816;2022-08-01T11:13:05;1.90;;;1.80;;
2456;SDS011;1240;48.018;7.816;2022-08-01T11:15:30;2.37;;;1.70;;
2456;SDS011;1240;48.018;7.816;2022-08-01T11:17:55;2.00;;;1.90;;
2456;SDS011;1240;48.018;7.816;2022-08-01T11:20:24;1.50;;;1.40;;
2456;SDS011;1240;48.018;7.816;2022-08-01T11:25:24;2.13;;;1.90;;
2456;SDS011;1240;48.018;7.816;2022-08-01T11:28:17;3.10;;;2.33;;
2456;SDS011;1240;48.018;7.816;2022-08-01T11:30:34;1.63;;;1.53;;
2456;SDS011;1240;48.018;7.816;2022-08-01T11:33:00;1.50;;;1.40;;
2456;SDS011;1240;48.018;7.816;2022-08-01T11:35:25;1.67;;;1.58;;
2456;SDS011;1240;48.018;7.816;2022-08-01T11:37:50;1.75;;;1.65;;
2456;SDS011;1240;48.018;7.816;2022-08-01T11:42:44;1.53;;;1.33;;
2456;SDS011;1240;48.018;7.816;2022-08-01T11:45:09;2.87;;;1.80;;
2456;SDS011;1240;48.018;7.816;2022-08-01T11:47:44;1.57;;;1.47;;
2456;SDS011;1240;48.018;7.816;2022-08-01T11:55:24;1.40;;;1.30;;
2456;SDS011;1240;48.018;7.816;2022-08-01T11:57:49;1.70;;;1.60;;
2456;SDS011;1240;48.018;7.816;2022-08-01T12:00:16;1.77;;;1.67;;
2456;SDS011;1240;48.018;7.816;2022-08-01T12:02:42;1.83;;;1.73;;
2456;SDS011;1240;48.018;7.816;2022-08-01T12:05:08;1.73;;;1.63;;
2456;SDS011;1240;48.018;7.816;2022-08-01T12:07:35;1.60;;;1.50;;
2456;SDS011;1240;48.018;7.816;2022-08-01T12:10:10;2.20;;;1.93;;
2456;SDS011;1240;48.018;7.816;2022-08-01T12:12:36;1.43;;;1.33;;
2456;SDS011;1240;48.018;7.816;2022-08-01T12:15:04;1.60;;;1.50;;
2456;SDS011;1240;48.018;7.816;2022-08-01T12:17:43;1.47;;;1.37;;
2456;SDS011;1240;48.018;7.816;2022-08-01T12:20:10;1.70;;;1.60;;
2456;SDS011;1240;48.018;7.816;2022-08-01T12:22:35;1.63;;;1.53;;
2456;SDS011;1240;48.018;7.816;2022-08-01T12:27:32;1.60;;;1.50;;
2456;SDS011;1240;48.018;7.816;2022-08-01T12:29:58;1.67;;;1.57;;
2456;SDS011;1240;48.018;7.816;2022-08-01T12:32:25;1.67;;;1.57;;
2456;SDS011;1240;48.018;7.816;2022-08-01T12:34:50;1.40;;;1.30;;
2456;SDS011;1240;48.018;7.816;2022-08-01T12:37:16;1.43;;;1.33;;
2456;SDS011;1240;48.018;7.816;2022-08-01T12:39:41;2.10;;;1.60;;
2456;SDS011;1240;48.018;7.816;2022-08-01T12:42:06;1.63;;;1.53;;
2456;SDS011;1240;48.018;7.816;2022-08-01T12:44:32;1.30;;;1.20;;
2456;SDS011;1240;48.018;7.816;2022-08-01T12:46:57;1.83;;;1.73;;
2456;SDS011;1240;48.018;7.816;2022-08-01T12:49:22;1.13;;;1.03;;
2456;SDS011;1240;48.018;7.816;2022-08-01T12:51:48;1.27;;;1.17;;
2456;SDS011;1240;48.018;7.816;2022-08-01T12:54:14;1.50;;;1.37;;
2456;SDS011;1240;48.018;7.816;2022-08-01T12:56:39;1.83;;;1.43;;
2456;SDS011;1240;48.018;7.816;2022-08-01T12:59:46;1.50;;;1.40;;
2456;SDS011;1240;48.018;7.816;2022-08-01T13:01:52;1.60;;;1.50;;
2456;SDS011;1240;48.018;7.816;2022-08-01T13:04:18;1.80;;;1.70;;
2456;SDS011;1240;48.018;7.816;2022-08-01T13:06:43;1.50;;;1.30;;
2456;SDS011;1240;48.018;7.816;2022-08-01T13:09:08;1.60;;;1.50;;
2456;SDS011;1240;48.018;7.816;2022-08-01T13:11:34;1.30;;;1.20;;
2456;SDS011;1240;48.018;7.816;2022-08-01T13:13:59;1.80;;;1.40;;
2456;SDS011;1240;48.018;7.816;2022-08-01T13:16:25;1.53;;;1.40;;
2456;SDS011;1240;48.018;7.816;2022-08-01T13:18:51;1.60;;;1.50;;
2456;SDS011;1240;48.018;7.816;2022-08-01T13:21:20;1.87;;;1.77;;
2456;SDS011;1240;48.018;7.816;2022-08-01T13:29:17;6.80;;;2.03;;
2456;SDS011;1240;48.018;7.816;2022-08-01T13:31:43;1.83;;;1.10;;
2456;SDS011;1240;48.018;7.816;2022-08-01T13:34:08;1.40;;;1.30;;
2456;SDS011;1240;48.018;7.816;2022-08-01T13:36:34;2.13;;;1.87;;
2456;SDS011;1240;48.018;7.816;2022-08-01T13:38:59;1.53;;;1.30;;
2456;SDS011;1240;48.018;7.816;2022-08-01T13:41:24;1.47;;;1.37;;
2456;SDS011;1240;48.018;7.816;2022-08-01T13:43:49;1.40;;;1.30;;
2456;SDS011;1240;48.018;7.816;2022-08-01T13:46:14;2.57;;;1.50;;
2456;SDS011;1240;48.018;7.816;2022-08-01T13:48:40;1.30;;;1.20;;
2456;SDS011;1240;48.018;7.816;2022-08-01T13:51:05;1.23;;;1.13;;
2456;SDS011;1240;48.018;7.816;2022-08-01T13:53:30;1.30;;;1.10;;
2456;SDS011;1240;48.018;7.816;2022-08-01T13:55:55;1.65;;;1.45;;
2456;SDS011;1240;48.018;7.816;2022-08-01T13:58:20;1.93;;;1.20;;
2456;SDS011;1240;48.018;7.816;2022-08-01T14:00:45;2.20;;;1.10;;
2456;SDS011;1240;48.018;7.816;2022-08-01T14:03:11;1.20;;;1.10;;
2456;SDS011;1240;48.018;7.816;2022-08-01T14:05:36;0.90;;;0.90;;
2456;SDS011;1240;48.018;7.816;2022-08-01T14:08:01;1.50;;;1.20;;
2456;SDS011;1240;48.018;7.816;2022-08-01T14:10:27;1.48;;;1.38;;
2456;SDS011;1240;48.018;7.816;2022-08-01T14:12:52;1.13;;;1.07;;
2456;SDS011;1240;48.018;7.816;2022-08-01T14:15:17;1.20;;;1.10;;
2456;SDS011;1240;48.018;7.816;2022-08-01T14:17:42;1.50;;;1.40;;
2456;SDS011;1240;48.018;7.816;2022-08-01T14:20:08;2.30;;;1.13;;
2456;SDS011;1240;48.018;7.816;2022-08-01T14:22:33;1.43;;;1.20;;
2456;SDS011;1240;48.018;7.816;2022-08-01T14:24:58;1.50;;;1.20;;
2456;SDS011;1240;48.018;7.816;2022-08-01T14:27:23;2.70;;;1.15;;
2456;SDS011;1240;48.018;7.816;2022-08-01T14:29:48;1.38;;;1.27;;
2456;SDS011;1240;48.018;7.816;2022-08-01T14:32:14;1.73;;;1.20;;
2456;SDS011;1240;48.018;7.816;2022-08-01T14:34:39;1.70;;;1.60;;
2456;SDS011;1240;48.018;7.816;2022-08-01T14:37:04;1.33;;;1.15;;
2456;SDS011;1240;48.018;7.816;2022-08-01T14:39:29;2.57;;;1.10;;
2456;SDS011;1240;48.018;7.816;2022-08-01T14:41:54;1.20;;;1.10;;
2456;SDS011;1240;48.018;7.816;2022-08-01T14:44:19;1.70;;;1.30;;
2456;SDS011;1240;48.018;7.816;2022-08-01T14:46:44;1.58;;;1.40;;
2456;SDS011;1240;48.018;7.816;2022-08-01T14:49:09;1.90;;;1.10;;
2456;SDS011;1240;48.018;7.816;2022-08-01T14:51:35;1.33;;;1.23;;
2456;SDS011;1240;48.018;7.816;2022-08-01T14:54:00;3.00;;;1.70;;
2456;SDS011;1240;48.018;7.816;2022-08-01T14:56:25;1.25;;;0.98;;
2456;SDS011;1240;48.018;7.816;2022-08-01T14:58:51;1.20;;;1.10;;
2456;SDS011;1240;48.018;7.816;2022-08-01T15:01:16;1.10;;;1.00;;
2456;SDS011;1240;48.018;7.816;2022-08-01T15:03:42;1.17;;;1.08;;
2456;SDS011;1240;48.018;7.816;2022-08-01T15:06:07;1.80;;;1.13;;
2456;SDS011;1240;48.018;7.816;2022-08-01T15:08:32;1.50;;;1.10;;
2456;SDS011;1240;48.018;7.816;2022-08-01T15:10:57;1.30;;;1.20;;
2456;SDS011;1240;48.018;7.816;2022-08-01T15:13:22;1.53;;;1.00;;
2456;SDS011;1240;48.018;7.816;2022-08-01T15:15:48;1.20;;;1.10;;
2456;SDS011;1240;48.018;7.816;2022-08-01T15:18:13;1.23;;;1.13;;
2456;SDS011;1240;48.018;7.816;2022-08-01T15:20:38;1.50;;;1.40;;
2456;SDS011;1240;48.018;7.816;2022-08-01T15:23:03;1.40;;;1.30;;
2456;SDS011;1240;48.018;7.816;2022-08-01T15:25:28;1.23;;;1.13;;
2456;SDS011;1240;48.018;7.816;2022-08-01T15:27:53;1.50;;;1.40;;
2456;SDS011;1240;48.018;7.816;2022-08-01T15:30:19;0.80;;;0.80;;
2456;SDS011;1240;48.018;7.816;2022-08-01T15:32:44;1.50;;;1.40;;
2456;SDS011;1240;48.018;7.816;2022-08-01T15:35:09;1.25;;;1.15;;
2456;SDS011;1240;48.018;7.816;2022-08-01T15:37:34;1.40;;;1.23;;
2456;SDS011;1240;48.018;7.816;2022-08-01T15:39:59;1.30;;;0.90;;
2456;SDS011;1240;48.018;7.816;2022-08-01T15:42:24;1.13;;;1.02;;
2456;SDS011;1240;48.018;7.816;2022-08-01T15:44:49;1.17;;;1.08;;
2456;SDS011;1240;48.018;7.816;2022-08-01T15:47:15;1.50;;;0.80;;
2456;SDS011;1240;48.018;7.816;2022-08-01T15:49:40;1.30;;;1.00;;
2456;SDS011;1240;48.018;7.816;2022-08-01T15:52:06;1.00;;;0.73;;
2456;SDS011;1240;48.018;7.816;2022-08-01T15:54:31;1.03;;;0.93;;